Time;durP1;ratioP1;P1;durP2;ratioP2;P2;SDS_P1;SDS_P2;PMS_P1;PMS_P2;Temp;Humidity;BMP_temperature;BMP_pressure;BME280_temperature;BME280_humidity;BME280_pressure;Samples;Min_cycle;Max_cycle;Signal;HPM_P1;HPM_P2
2022/01/27 00:01:12;;;;;;;;;;;;;;;-14.34;71.37;97211.78;6309763;28;19924;-57
2022/01/27 00:04:22;;;;;;;;;;;;;;;-14.36;72.26;97218.44;6304734;28;19931;-59
2022/01/27 00:07:23;;;;;;;;;;;;;;;-14.36;72.03;97211.69;6318176;28;19924;-60
2022/01/27 00:13:43;;;;;;;;;;;;;;;-14.51;72.73;97229.69;6295030;28;20047;-60
2022/01/27 00:16:53;;;;;;;;;;;;;;;-14.53;72.56;97216.16;6310389;28;19920;-55
2022/01/27 00:19:54;;;;;;;;;;;;;;;-14.65;72.70;97220.75;6306612;28;19935;-59
2022/01/27 00:22:55;;;;;;;;;;;;;;;-14.83;73.16;97230.13;6298322;28;20394;-61
2022/01/27 00:25:56;;;;;;;;;;;;;;;-14.84;73.69;97238.53;6305505;28;20062;-58
2022/01/27 00:28:58;;;;;;;;;;;;;;;-14.90;73.56;97233.22;6307164;28;19983;-61
2022/01/27 00:31:59;;;;;;;;;;;;;;;-14.44;74.42;97234.97;6303438;28;19932;-57
2022/01/27 00:35:03;;;;;;;;;;;;;;;-14.58;74.15;97237.84;6308090;28;19924;-59
2022/01/27 00:38:04;;;;;;;;;;;;;;;-14.36;74.47;97236.97;6303061;28;19924;-59
2022/01/27 00:41:05;;;;;;;;;;;;;;;-14.57;73.86;97234.53;6302782;28;19931;-61
2022/01/27 00:44:06;;;;;;;;;;;;;;;-14.62;74.23;97236.03;6306198;28;19924;-57
2022/01/27 00:47:08;;;;;;;;;;;;;;;-14.68;73.67;97250.94;6317737;28;20179;-59
2022/01/27 00:50:09;;;;;;;;;;;;;;;-14.73;74.08;97243.19;6299446;28;19931;-59
2022/01/27 00:53:27;;;;;;;;;;;;;;;-14.78;74.03;97251.38;6308122;28;20030;-60
2022/01/27 01:10:01;;;;;;;;;;;;;;;-14.63;74.64;97244.41;6322413;28;20020;-57
2022/01/27 01:14:01;;;;;;;;;;;;;;;-14.18;74.54;97254.50;6320573;28;19928;-59
2022/01/27 01:15:55;;;;;;;;;;;;;;;-13.96;73.52;97255.28;6318644;28;20065;-60
2022/01/27 01:19:14;;;;;;;;;;;;;;;-13.98;73.12;97252.72;6320313;28;19924;-60
2022/01/27 01:36:12;;;;;;;;;;;;;;;-13.44;73.00;97262.19;6323181;28;19926;-59
2022/01/27 01:39:16;;;;;;;;;;;;;;;-13.29;72.83;97267.78;6335612;28;20650;-59
2022/01/27 01:42:17;;;;;;;;;;;;;;;-13.28;72.98;97266.09;6336008;28;19962;-59
2022/01/27 01:45:19;;;;;;;;;;;;;;;-13.18;72.87;97276.56;6334820;28;20415;-59
2022/01/27 01:48:20;;;;;;;;;;;;;;;-13.06;73.03;97276.09;6337485;28;19924;-57
2022/01/27 01:51:26;;;;;;;;;;;;;;;-13.03;72.50;97275.34;6333131;28;20297;-60
2022/01/27 01:54:27;;;;;;;;;;;;;;;-13.27;73.12;97281.34;6327570;28;19931;-58
2022/01/27 01:57:28;;;;;;;;;;;;;;;-13.20;73.09;97283.22;6324570;28;19923;-61
2022/01/27 02:00:32;;;;;;;;;;;;;;;-13.05;73.28;97276.97;6321766;28;20010;-58
2022/01/27 02:03:33;;;;;;;;;;;;;;;-13.07;73.24;97284.53;6333033;28;19924;-60
2022/01/27 02:06:46;;;;;;;;;;;;;;;-12.78;73.27;97288.00;6326216;28;19924;-60
2022/01/27 02:19:50;;;;;;;;;;;;;;;-13.02;73.79;97283.00;6328703;28;20305;-59
2022/01/27 02:22:53;;;;;;;;;;;;;;;-13.01;73.36;97283.88;6321080;28;20421;-61
2022/01/27 02:25:56;;;;;;;;;;;;;;;-12.90;74.08;97282.53;6319792;28;19925;-59
2022/01/27 02:29:00;;;;;;;;;;;;;;;-12.85;73.97;97278.47;6323020;28;20381;-61
2022/01/27 02:32:01;;;;;;;;;;;;;;;-12.91;73.86;97273.19;6323659;28;19935;-58
2022/01/27 02:35:03;;;;;;;;;;;;;;;-12.92;73.95;97279.94;6327753;28;19924;-58
2022/01/27 02:38:06;;;;;;;;;;;;;;;-12.82;74.41;97281.13;6326946;28;19923;-60
2022/01/27 02:41:08;;;;;;;;;;;;;;;-12.79;73.95;97281.22;6328514;28;19924;-58
2022/01/27 02:44:09;;;;;;;;;;;;;;;-12.76;74.04;97281.31;6322493;28;20028;-59
2022/01/27 02:47:10;;;;;;;;;;;;;;;-12.78;73.68;97277.88;6331596;28;19931;-61
2022/01/27 02:50:13;;;;;;;;;;;;;;;-12.88;73.56;97285.97;6328127;28;19931;-58
2022/01/27 02:53:14;;;;;;;;;;;;;;;-12.72;74.74;97288.19;6329815;28;19932;-59
2022/01/27 02:56:15;;;;;;;;;;;;;;;-12.78;74.45;97288.00;6327687;28;21690;-62
2022/01/27 02:59:18;;;;;;;;;;;;;;;-12.59;74.56;97289.47;6329433;28;19924;-59
2022/01/27 03:02:22;;;;;;;;;;;;;;;-12.25;73.44;97291.38;6322985;28;19931;-60
2022/01/27 03:05:23;;;;;;;;;;;;;;;-11.96;73.40;97290.50;6331029;28;19935;-61
2022/01/27 03:08:27;;;;;;;;;;;;;;;-11.94;72.95;97287.22;6325154;28;19927;-60
2022/01/27 03:11:37;;;;;;;;;;;;;;;-11.67;72.46;97286.25;6327481;28;20026;-60
2022/01/27 03:14:41;;;;;;;;;;;;;;;-11.62;72.01;97284.69;6334357;28;20350;-58
2022/01/27 03:17:42;;;;;;;;;;;;;;;-11.51;71.84;97283.31;6321740;28;19993;-58
2022/01/27 03:20:43;;;;;;;;;;;;;;;-11.39;71.72;97293.78;6329021;28;19931;-60
2022/01/27 03:23:44;;;;;;;;;;;;;;;-11.21;71.83;97288.34;6324947;28;20302;-59
2022/01/27 03:26:46;;;;;;;;;;;;;;;-10.88;72.07;97283.28;6313020;28;19930;-58
2022/01/27 03:29:50;;;;;;;;;;;;;;;-10.50;71.39;97278.28;6330079;28;19928;-59
2022/01/27 03:32:51;;;;;;;;;;;;;;;-10.29;71.06;97284.69;6320257;28;19925;-58
2022/01/27 03:35:52;;;;;;;;;;;;;;;-10.51;70.98;97279.09;6315375;28;19924;-60
2022/01/27 03:38:53;;;;;;;;;;;;;;;-10.45;71.59;97279.22;6325384;28;19928;-60
2022/01/27 03:41:56;;;;;;;;;;;;;;;-10.38;71.28;97269.22;6321150;28;19935;-59
2022/01/27 03:44:57;;;;;;;;;;;;;;;-10.29;71.54;97279.59;6323042;28;19926;-58
2022/01/27 03:47:58;;;;;;;;;;;;;;;-10.19;71.81;97284.91;6328724;28;19924;-58
2022/01/27 03:50:59;;;;;;;;;;;;;;;-10.02;71.00;97285.28;6324633;28;19924;-59
2022/01/27 03:54:00;;;;;;;;;;;;;;;-10.09;70.91;97293.59;6337486;28;19931;-60
2022/01/27 03:57:01;;;;;;;;;;;;;;;-10.03;69.79;97293.72;6328935;28;20421;-60
2022/01/27 04:00:04;;;;;;;;;;;;;;;-9.97;69.30;97301.50;6321556;28;20305;-60
2022/01/27 04:03:11;;;;;;;;;;;;;;;-10.24;69.29;97308.53;6329733;28;20296;-62
2022/01/27 04:06:19;;;;;;;;;;;;;;;-10.20;69.87;97315.41;6326671;28;19930;-62
2022/01/27 04:09:20;;;;;;;;;;;;;;;-10.30;69.62;97314.38;6325042;28;19924;-59
2022/01/27 04:12:21;;;;;;;;;;;;;;;-10.56;69.34;97326.44;6332319;28;19931;-60
2022/01/27 04:15:22;;;;;;;;;;;;;;;-10.29;68.82;97315.22;6302458;28;20057;-60
2022/01/27 04:18:25;;;;;;;;;;;;;;;-10.08;68.13;97320.75;6330131;28;19997;-59
2022/01/27 04:21:28;;;;;;;;;;;;;;;-9.88;67.97;97307.63;6328643;28;19924;-59
2022/01/27 04:24:30;;;;;;;;;;;;;;;-9.73;67.57;97300.31;6332283;28;19957;-60
2022/01/27 04:27:34;;;;;;;;;;;;;;;-9.56;67.58;97311.72;6324346;28;19923;-59
2022/01/27 04:30:38;;;;;;;;;;;;;;;-9.60;67.56;97293.78;6328572;28;19931;-60
2022/01/27 04:33:40;;;;;;;;;;;;;;;-9.47;67.66;97305.09;6328839;28;19923;-61
2022/01/27 04:36:44;;;;;;;;;;;;;;;-9.33;66.13;97303.69;6342009;28;19923;-59
2022/01/27 04:39:58;;;;;;;;;;;;;;;-9.48;66.51;97304.25;6337544;28;19927;-62
2022/01/27 04:49:16;;;;;;;;;;;;;;;-9.32;65.36;97315.59;6337529;28;19979;-61
2022/01/27 04:52:20;;;;;;;;;;;;;;;-9.54;64.93;97315.16;6318637;28;19924;-60
2022/01/27 04:55:23;;;;;;;;;;;;;;;-9.61;65.58;97327.72;6309579;28;20016;-59
2022/01/27 04:58:31;;;;;;;;;;;;;;;-9.63;65.29;97322.59;6302462;28;19931;-59
2022/01/27 05:01:43;;;;;;;;;;;;;;;-9.88;65.43;97330.53;6304896;28;19924;-60
2022/01/27 05:04:49;;;;;;;;;;;;;;;-9.73;64.98;97329.19;6304794;28;19924;-59
2022/01/27 05:07:58;;;;;;;;;;;;;;;-9.65;65.36;97321.72;6303069;28;19925;-59
2022/01/27 05:11:18;;;;;;;;;;;;;;;-9.57;65.80;97330.34;6295334;28;19924;-61
2022/01/27 05:14:24;;;;;;;;;;;;;;;-9.73;66.20;97318.16;6298486;28;20457;-59
2022/01/27 05:17:26;;;;;;;;;;;;;;;-9.44;65.69;97320.44;6301945;28;20408;-60
2022/01/27 05:20:27;;;;;;;;;;;;;;;-9.47;65.58;97325.47;6306006;28;20082;-59
2022/01/27 05:23:28;;;;;;;;;;;;;;;-9.20;64.74;97331.09;6303836;28;19924;-60
2022/01/27 05:26:29;;;;;;;;;;;;;;;-9.07;64.25;97338.16;6324220;28;19950;-60
2022/01/27 05:29:30;;;;;;;;;;;;;;;-9.07;64.56;97333.06;6326446;28;19924;-65
2022/01/27 05:32:36;;;;;;;;;;;;;;;-8.87;63.94;97335.13;6326202;28;20309;-64
2022/01/27 05:35:37;;;;;;;;;;;;;;;-8.61;64.03;97339.00;6327403;28;19928;-64
2022/01/27 05:38:38;;;;;;;;;;;;;;;-8.38;63.62;97352.16;6331557;28;19923;-64
2022/01/27 05:41:39;;;;;;;;;;;;;;;-8.05;62.54;97350.09;6309068;28;19924;-66
2022/01/27 05:44:40;;;;;;;;;;;;;;;-7.71;62.19;97347.22;6288383;28;19951;-64
2022/01/27 05:47:44;;;;;;;;;;;;;;;-7.57;61.88;97339.75;6323195;28;19924;-64
2022/01/27 05:50:45;;;;;;;;;;;;;;;-7.33;61.20;97338.34;6322000;28;20065;-64
2022/01/27 05:53:49;;;;;;;;;;;;;;;-7.24;60.15;97334.22;6328129;28;20032;-64
2022/01/27 05:56:50;;;;;;;;;;;;;;;-7.17;60.49;97344.50;6320611;28;19924;-64
2022/01/27 05:59:51;;;;;;;;;;;;;;;-7.10;59.59;97336.09;6333086;28;19923;-65
2022/01/27 06:02:55;;;;;;;;;;;;;;;-7.08;59.91;97340.34;6338949;28;20313;-64
2022/01/27 06:05:58;;;;;;;;;;;;;;;-6.91;59.27;97332.88;6341611;28;20313;-69
2022/01/27 06:09:01;;;;;;;;;;;;;;;-6.84;59.40;97349.16;6329574;28;19924;-65
2022/01/27 06:12:05;;;;;;;;;;;;;;;-6.65;58.41;97345.09;6333558;28;20458;-64
2022/01/27 06:15:06;;;;;;;;;;;;;;;-6.68;58.30;97334.81;6319000;28;20077;-65
2022/01/27 06:18:07;;;;;;;;;;;;;;;-6.87;58.23;97342.31;6310508;28;19924;-65
2022/01/27 06:21:10;;;;;;;;;;;;;;;-7.07;59.43;97341.25;6315048;28;20058;-65
2022/01/27 06:24:14;;;;;;;;;;;;;;;-7.09;58.50;97348.03;6318702;28;20445;-65
2022/01/27 06:27:15;;;;;;;;;;;;;;;-7.39;59.45;97357.00;6291736;28;19920;-64
2022/01/27 06:30:16;;;;;;;;;;;;;;;-7.32;59.65;97346.03;6311947;28;19928;-65
2022/01/27 06:33:19;;;;;;;;;;;;;;;-7.40;60.11;97347.63;6313412;28;19923;-65
2022/01/27 06:36:21;;;;;;;;;;;;;;;-7.28;59.03;97342.66;6317657;28;19924;-64
2022/01/27 06:39:22;;;;;;;;;;;;;;;-7.31;59.39;97352.84;6316773;28;20305;-66
2022/01/27 06:42:25;;;;;;;;;;;;;;;-7.31;59.59;97352.84;6307653;28;19935;-66
2022/01/27 06:45:27;;;;;;;;;;;;;;;-7.15;58.85;97353.06;6317177;28;19958;-66
2022/01/27 06:48:31;;;;;;;;;;;;;;;-6.86;58.61;97361.06;6317483;28;19924;-62
2022/01/27 06:51:34;;;;;;;;;;;;;;;-5.87;57.49;97356.00;6312319;28;19928;-61
2022/01/27 06:54:36;;;;;;;;;;;;;;;-3.93;54.14;97367.84;6316279;28;19928;-61
2022/01/27 06:57:37;;;;;;;;;;;;;;;-0.57;48.35;97370.88;6316900;28;19930;-61
2022/01/27 07:00:41;;;;;;;;;;;;;;;2.27;42.05;97357.91;6316516;28;19976;-62
2022/01/27 07:03:45;;;;;;;;;;;;;;;4.19;38.01;97366.41;6295589;28;19923;-62
2022/01/27 07:06:48;;;;;;;;;;;;;;;5.79;34.80;97365.19;6315172;28;19947;-62
2022/01/27 07:09:52;;;;;;;;;;;;;;;7.54;32.46;97371.09;6310355;28;19990;-62
2022/01/27 07:12:55;;;;;;;;;;;;;;;7.65;31.89;97363.59;6307669;28;19931;-62
2022/01/27 07:15:57;;;;;;;;;;;;;;;7.76;31.45;97367.50;6310730;28;19969;-62
2022/01/27 07:18:58;;;;;;;;;;;;;;;7.50;28.36;97371.28;6307936;28;19962;-61
2022/01/27 07:21:59;;;;;;;;;;;;;;;7.30;28.87;97377.41;6310792;28;20005;-61
2022/01/27 07:25:01;;;;;;;;;;;;;;;7.77;28.82;97371.81;6309361;28;19923;-62
2022/01/27 07:28:06;;;;;;;;;;;;;;;8.21;25.44;97385.50;6307957;28;19932;-62
2022/01/27 07:31:10;;;;;;;;;;;;;;;7.55;28.37;97380.63;6313962;28;19924;-64
2022/01/27 07:34:13;;;;;;;;;;;;;;;7.18;26.56;97370.94;6307391;28;20393;-61
2022/01/27 07:37:14;;;;;;;;;;;;;;;5.82;27.54;97375.53;6307965;28;19969;-62
2022/01/27 07:40:20;;;;;;;;;;;;;;;6.11;26.97;97381.41;6314971;28;19924;-61
2022/01/27 07:43:26;;;;;;;;;;;;;;;5.66;26.73;97374.38;6310022;28;19924;-62
2022/01/27 07:46:27;;;;;;;;;;;;;;;4.09;29.06;97370.22;6309388;28;19931;-61
2022/01/27 07:49:28;;;;;;;;;;;;;;;4.47;29.28;97367.25;6299100;28;20308;-62
2022/01/27 07:52:30;;;;;;;;;;;;;;;5.00;28.08;97375.91;6300213;28;19928;-62
2022/01/27 07:55:34;;;;;;;;;;;;;;;5.72;27.10;97371.56;6310839;28;19931;-61
2022/01/27 07:58:38;;;;;;;;;;;;;;;7.22;25.60;97380.38;6300659;28;19935;-62
2022/01/27 08:01:41;;;;;;;;;;;;;;;8.38;23.99;97373.31;6307178;28;19965;-62
2022/01/27 08:04:46;;;;;;;;;;;;;;;9.32;23.77;97367.78;6295525;28;19935;-62
2022/01/27 08:07:47;;;;;;;;;;;;;;;10.53;22.22;97370.88;6306493;28;19924;-62
2022/01/27 08:10:48;;;;;;;;;;;;;;;11.45;21.95;97365.50;6302729;28;20412;-61
2022/01/27 08:13:52;;;;;;;;;;;;;;;12.81;21.55;97366.63;6289917;28;20325;-59
2022/01/27 08:16:53;;;;;;;;;;;;;;;14.16;19.96;97362.69;6297863;28;19977;-59
2022/01/27 08:19:57;;;;;;;;;;;;;;;14.91;18.69;97364.31;6314255;28;19977;-60
2022/01/27 08:22:58;;;;;;;;;;;;;;;15.56;18.15;97360.28;6312721;28;20020;-59
2022/01/27 08:26:06;;;;;;;;;;;;;;;14.99;17.40;97346.88;6329616;28;20019;-60
2022/01/27 08:32:16;;;;;;;;;;;;;;;14.48;18.72;97341.81;6315939;28;19931;-60
2022/01/27 08:35:19;;;;;;;;;;;;;;;15.01;17.72;97354.72;6311030;28;20302;-60
2022/01/27 08:38:20;;;;;;;;;;;;;;;14.60;17.21;97337.44;6315662;28;19924;-60
2022/01/27 08:41:23;;;;;;;;;;;;;;;15.10;16.97;97338.13;6311440;28;19931;-59
2022/01/27 08:44:25;;;;;;;;;;;;;;;15.14;16.63;97339.56;6315485;28;20433;-60
2022/01/27 08:47:30;;;;;;;;;;;;;;;14.64;17.29;97341.56;6314351;28;19924;-60
2022/01/27 08:50:31;;;;;;;;;;;;;;;15.58;16.74;97337.97;6312665;28;20023;-60
2022/01/27 08:53:36;;;;;;;;;;;;;;;15.29;16.11;97342.03;6309916;28;19939;-60
2022/01/27 08:56:40;;;;;;;;;;;;;;;14.31;16.70;97343.03;6308657;28;20389;-60
2022/01/27 08:59:41;;;;;;;;;;;;;;;14.02;17.22;97341.66;6315609;28;19931;-60
2022/01/27 09:02:42;;;;;;;;;;;;;;;15.21;16.87;97338.16;6299225;28;19919;-60
2022/01/27 09:05:45;;;;;;;;;;;;;;;15.94;16.28;97349.38;6316937;28;19947;-60
2022/01/27 09:08:46;;;;;;;;;;;;;;;15.37;16.30;97344.91;6317528;28;19920;-61
2022/01/27 09:11:51;;;;;;;;;;;;;;;14.74;16.32;97342.56;6309795;28;19925;-60
2022/01/27 09:14:56;;;;;;;;;;;;;;;14.03;17.15;97341.53;6315888;28;19924;-60
2022/01/27 09:18:00;;;;;;;;;;;;;;;13.79;16.98;97336.19;6314846;28;19931;-59
2022/01/27 09:21:09;;;;;;;;;;;;;;;12.74;17.79;97338.94;6331356;28;19928;-60
2022/01/27 09:24:14;;;;;;;;;;;;;;;12.92;17.71;97337.69;6312413;28;19993;-60
2022/01/27 09:27:16;;;;;;;;;;;;;;;12.75;17.79;97330.91;6291880;28;20024;-61
2022/01/27 09:30:20;;;;;;;;;;;;;;;11.95;18.33;97339.66;6317934;28;19924;-60
2022/01/27 09:33:21;;;;;;;;;;;;;;;11.20;19.07;97322.19;6312333;28;19924;-59
2022/01/27 09:36:24;;;;;;;;;;;;;;;11.24;19.07;97325.50;6318607;28;19920;-60
2022/01/27 09:39:25;;;;;;;;;;;;;;;11.91;18.78;97312.59;6322161;28;20308;-60
2022/01/27 09:42:30;;;;;;;;;;;;;;;12.11;18.22;97319.25;6314514;28;19924;-61
2022/01/27 09:45:37;;;;;;;;;;;;;;;12.17;18.41;97318.00;6322372;28;19920;-60
2022/01/27 09:48:43;;;;;;;;;;;;;;;12.49;17.81;97324.72;6318194;28;20412;-61
2022/01/27 09:51:47;;;;;;;;;;;;;;;12.38;18.11;97311.34;6313676;28;19924;-61
2022/01/27 09:54:51;;;;;;;;;;;;;;;12.53;18.18;97310.34;6319203;28;19924;-61
2022/01/27 09:57:52;;;;;;;;;;;;;;;12.05;18.45;97309.09;6322345;28;19920;-60
2022/01/27 10:00:53;;;;;;;;;;;;;;;12.19;18.07;97316.13;6312068;28;19927;-61
2022/01/27 10:04:00;;;;;;;;;;;;;;;11.52;18.83;97295.69;6318216;28;19926;-61
2022/01/27 10:07:01;;;;;;;;;;;;;;;10.97;19.13;97302.50;6317985;28;19924;-58
2022/01/27 10:10:08;;;;;;;;;;;;;;;10.25;19.73;97301.41;6320978;28;20005;-60
2022/01/27 10:13:33;;;;;;;;;;;;;;;9.72;20.23;97302.59;6318202;28;20309;-59
2022/01/27 10:16:42;;;;;;;;;;;;;;;9.22;20.98;97293.03;6314103;28;19924;-62
2022/01/27 10:19:52;;;;;;;;;;;;;;;9.33;20.79;97301.19;6306492;28;20036;-61
2022/01/27 10:23:15;;;;;;;;;;;;;;;9.16;20.93;97303.84;6318150;28;19928;-60
2022/01/27 10:26:20;;;;;;;;;;;;;;;7.98;22.02;97307.06;6318105;28;20375;-60
2022/01/27 10:29:37;;;;;;;;;;;;;;;8.53;21.67;97305.28;6316397;28;19924;-60
2022/01/27 10:32:38;;;;;;;;;;;;;;;8.89;21.23;97307.00;6314945;28;20496;-61
2022/01/27 10:35:39;;;;;;;;;;;;;;;8.81;21.23;97303.91;6316560;28;19924;-61
2022/01/27 10:38:40;;;;;;;;;;;;;;;8.45;21.77;97294.31;6312025;28;19931;-61
2022/01/27 10:41:55;;;;;;;;;;;;;;;8.12;22.17;97298.56;6319947;28;19947;-59
2022/01/27 10:45:07;;;;;;;;;;;;;;;8.31;22.04;97294.13;6311360;28;19924;-60
2022/01/27 10:48:12;;;;;;;;;;;;;;;6.00;24.15;97297.38;6321130;28;19931;-59
2022/01/27 10:51:25;;;;;;;;;;;;;;;2.80;28.18;97294.19;6314592;28;19963;-60
2022/01/27 10:54:39;;;;;;;;;;;;;;;0.47;32.75;97289.06;6319715;28;19954;-59
2022/01/27 10:57:49;;;;;;;;;;;;;;;-1.49;34.96;97289.31;6320096;28;19920;-60
2022/01/27 11:00:55;;;;;;;;;;;;;;;-2.43;37.83;97286.69;6318848;28;19931;-60
2022/01/27 11:03:58;;;;;;;;;;;;;;;-2.90;38.91;97293.84;6315125;28;19924;-60
2022/01/27 11:07:03;;;;;;;;;;;;;;;-3.25;38.66;97294.84;6320402;28;19927;-60
2022/01/27 11:10:04;;;;;;;;;;;;;;;-3.27;38.01;97296.56;6322425;28;19930;-61
2022/01/27 11:13:10;;;;;;;;;;;;;;;-3.18;38.91;97295.66;6334709;28;19924;-61
2022/01/27 11:16:16;;;;;;;;;;;;;;;-3.65;40.02;97300.13;6343052;28;20014;-60
2022/01/27 11:25:55;;;;;;;;;;;;;;;-4.54;42.87;97289.84;6334525;28;19923;-60
2022/01/27 11:28:57;;;;;;;;;;;;;;;-4.57;44.32;97300.13;6338868;28;19920;-61
2022/01/27 11:32:11;;;;;;;;;;;;;;;-5.02;44.60;97299.16;6342399;28;19923;-60
2022/01/27 11:35:19;;;;;;;;;;;;;;;-5.04;45.49;97297.44;6342407;28;19928;-61
2022/01/27 11:38:27;;;;;;;;;;;;;;;-5.38;46.42;97302.44;6340255;28;19927;-62
2022/01/27 11:41:43;;;;;;;;;;;;;;;-5.71;47.34;97303.13;6328424;28;20309;-61
2022/01/27 11:44:45;;;;;;;;;;;;;;;-5.55;47.89;97310.03;6341064;28;20313;-62
2022/01/27 11:47:53;;;;;;;;;;;;;;;-5.03;46.52;97315.44;6336561;28;19931;-62
2022/01/27 11:51:08;;;;;;;;;;;;;;;-5.66;47.12;97316.84;6344199;28;19924;-62
2022/01/27 11:54:25;;;;;;;;;;;;;;;-6.07;47.51;97324.28;6344218;28;19930;-62
2022/01/27 11:57:45;;;;;;;;;;;;;;;-6.02;49.17;97310.66;6338978;28;19946;-61
2022/01/27 12:01:07;;;;;;;;;;;;;;;-6.48;49.54;97302.63;6325493;28;19924;-61
2022/01/27 12:04:11;;;;;;;;;;;;;;;-6.80;50.37;97310.81;6310027;28;20712;-60
2022/01/27 12:07:14;;;;;;;;;;;;;;;-7.36;51.39;97313.63;6312724;28;20414;-67
2022/01/27 12:10:36;;;;;;;;;;;;;;;-7.41;52.19;97322.94;6318468;28;19924;-60
2022/01/27 12:13:47;;;;;;;;;;;;;;;-7.57;53.35;97315.88;6310839;28;19924;-61
2022/01/27 12:17:20;;;;;;;;;;;;;;;-7.98;53.13;97324.69;6314195;28;19928;-61
2022/01/27 12:20:41;;;;;;;;;;;;;;;-7.88;54.00;97323.13;6314374;28;19931;-60
2022/01/27 12:24:03;;;;;;;;;;;;;;;-8.18;54.56;97319.28;6307514;28;19924;-61
2022/01/27 12:27:07;;;;;;;;;;;;;;;-8.66;55.18;97311.69;6304132;28;20213;-61
2022/01/27 12:30:11;;;;;;;;;;;;;;;-8.62;56.48;97324.53;6312621;28;20061;-59
2022/01/27 12:33:17;;;;;;;;;;;;;;;-8.62;57.02;97326.25;6311584;28;19939;-62
2022/01/27 12:36:20;;;;;;;;;;;;;;;-8.89;56.96;97336.78;6308567;28;19932;-62
2022/01/27 12:39:22;;;;;;;;;;;;;;;-9.26;58.08;97341.19;6309646;28;19924;-62
2022/01/27 12:42:32;;;;;;;;;;;;;;;-9.39;58.70;97337.53;6306868;28;19931;-62
2022/01/27 12:45:37;;;;;;;;;;;;;;;-9.64;59.12;97332.75;6300630;28;20388;-62
2022/01/27 12:48:47;;;;;;;;;;;;;;;-9.68;59.44;97331.84;6307871;28;19924;-60
2022/01/27 12:51:55;;;;;;;;;;;;;;;-9.96;59.32;97338.88;6304298;28;19924;-61
2022/01/27 12:54:59;;;;;;;;;;;;;;;-10.13;59.33;97340.19;6297115;28;19925;-62
2022/01/27 12:58:05;;;;;;;;;;;;;;;-10.21;59.39;97339.13;6305697;28;19924;-64
2022/01/27 13:01:10;;;;;;;;;;;;;;;-9.93;60.50;97330.44;6305141;28;20276;-64
2022/01/27 13:04:11;;;;;;;;;;;;;;;-9.98;60.37;97337.97;6295391;28;19936;-62
2022/01/27 13:07:12;;;;;;;;;;;;;;;-10.20;59.88;97340.84;6311859;28;19931;-61
2022/01/27 13:10:18;;;;;;;;;;;;;;;-10.38;60.04;97340.44;6307021;28;19931;-67
2022/01/27 13:13:28;;;;;;;;;;;;;;;-10.15;61.01;97344.34;6313338;28;19924;-67
2022/01/27 13:16:39;;;;;;;;;;;;;;;-10.01;61.09;97339.59;6307926;28;20330;-64
2022/01/27 13:19:48;;;;;;;;;;;;;;;-10.36;60.74;97359.97;6310111;28;19924;-62
2022/01/27 13:22:57;;;;;;;;;;;;;;;-10.60;60.83;97344.13;6316941;28;19924;-61
2022/01/27 13:26:04;;;;;;;;;;;;;;;-10.30;61.33;97359.28;6329885;28;20501;-66
2022/01/27 13:29:07;;;;;;;;;;;;;;;-10.48;61.54;97355.47;6331304;28;19924;-62
2022/01/27 13:32:09;;;;;;;;;;;;;;;-10.73;61.53;97353.13;6322768;28;20354;-63
2022/01/27 13:35:12;;;;;;;;;;;;;;;-10.63;62.36;97355.09;6343541;28;19924;-62
2022/01/27 13:39:02;;;;;;;;;;;;;;;-10.62;61.93;97356.81;6338415;28;19928;-61
2022/01/27 13:41:43;;;;;;;;;;;;;;;-10.91;62.23;97344.19;6338927;28;19927;-63
2022/01/27 13:44:55;;;;;;;;;;;;;;;-10.96;61.82;97340.69;6324843;28;20385;-62
2022/01/27 13:47:56;;;;;;;;;;;;;;;-10.77;62.52;97348.78;6328280;28;19965;-62
2022/01/27 13:51:00;;;;;;;;;;;;;;;-10.73;62.41;97342.94;6342473;28;20061;-60
2022/01/27 13:54:02;;;;;;;;;;;;;;;-10.83;61.80;97341.88;6338960;28;19935;-61
2022/01/27 13:57:11;;;;;;;;;;;;;;;-10.99;61.63;97338.06;6346520;28;19963;-63
2022/01/27 14:00:20;;;;;;;;;;;;;;;-11.15;61.82;97333.38;6345790;28;19957;-62
2022/01/27 14:03:21;;;;;;;;;;;;;;;-11.15;62.23;97341.00;6320124;28;19935;-62
2022/01/27 14:06:24;;;;;;;;;;;;;;;-10.95;61.88;97342.41;6330842;28;20433;-62
2022/01/27 14:09:29;;;;;;;;;;;;;;;-11.01;61.38;97352.41;6342761;28;19998;-62
2022/01/27 14:12:43;;;;;;;;;;;;;;;-11.13;61.50;97347.00;6346276;28;19924;-62
2022/01/27 14:15:52;;;;;;;;;;;;;;;-11.25;61.56;97344.13;6346345;28;20008;-62
2022/01/27 14:18:53;;;;;;;;;;;;;;;-11.14;61.84;97345.28;6345409;28;20314;-61
2022/01/27 14:21:58;;;;;;;;;;;;;;;-10.94;62.17;97353.44;6336747;28;19928;-61
2022/01/27 14:25:04;;;;;;;;;;;;;;;-11.00;62.28;97363.44;6334416;28;20332;-62
2022/01/27 14:28:11;;;;;;;;;;;;;;;-11.11;62.19;97365.69;6345927;28;20301;-62
2022/01/27 14:31:15;;;;;;;;;;;;;;;-11.20;62.26;97365.44;6341292;28;19924;-62
2022/01/27 14:34:29;;;;;;;;;;;;;;;-11.43;62.28;97368.19;6346438;28;20044;-62
2022/01/27 14:37:30;;;;;;;;;;;;;;;-11.57;62.33;97359.31;6338132;28;19930;-62
2022/01/27 14:40:34;;;;;;;;;;;;;;;-11.38;63.10;97359.03;6334507;28;19924;-62
2022/01/27 14:43:38;;;;;;;;;;;;;;;-11.33;63.05;97360.00;6333379;28;19929;-62
2022/01/27 14:46:42;;;;;;;;;;;;;;;-11.38;62.92;97366.66;6328602;28;19924;-61
2022/01/27 14:49:45;;;;;;;;;;;;;;;-11.34;62.97;97363.38;6338678;28;19923;-63
2022/01/27 14:52:46;;;;;;;;;;;;;;;-11.24;63.08;97361.94;6330206;28;20283;-61
2022/01/27 14:55:49;;;;;;;;;;;;;;;-11.12;63.31;97351.28;6326658;28;19924;-62
2022/01/27 14:58:53;;;;;;;;;;;;;;;-11.30;63.00;97352.47;6307521;28;20413;-60
2022/01/27 15:01:54;;;;;;;;;;;;;;;-11.32;62.87;97351.56;6294795;28;20015;-62
2022/01/27 15:04:55;;;;;;;;;;;;;;;-11.34;62.98;97353.22;6299016;28;19945;-61
2022/01/27 15:07:57;;;;;;;;;;;;;;;-11.25;63.18;97352.59;6311426;28;19935;-62
2022/01/27 15:10:58;;;;;;;;;;;;;;;-11.09;63.78;97333.56;6313625;28;19924;-62
2022/01/27 15:14:03;;;;;;;;;;;;;;;-10.97;64.31;97340.66;6312679;28;19931;-62
2022/01/27 15:20:28;;;;;;;;;;;;;;;-11.00;63.79;97348.19;6309520;28;20370;-61
2022/01/27 15:23:35;;;;;;;;;;;;;;;-11.16;63.76;97346.91;6314874;28;19966;-62
2022/01/27 15:26:36;;;;;;;;;;;;;;;-11.28;64.12;97336.41;6306025;28;19920;-63
2022/01/27 15:29:39;;;;;;;;;;;;;;;-11.18;64.27;97336.72;6313767;28;19928;-62
2022/01/27 15:32:42;;;;;;;;;;;;;;;-11.29;64.09;97330.50;6313545;28;19927;-62
2022/01/27 15:35:44;;;;;;;;;;;;;;;-11.24;64.61;97338.22;6315975;28;19974;-61
2022/01/27 15:38:45;;;;;;;;;;;;;;;-11.38;64.52;97336.19;6314281;28;19931;-62
2022/01/27 15:41:48;;;;;;;;;;;;;;;-11.27;65.17;97333.91;6314317;28;19925;-61
2022/01/27 15:44:49;;;;;;;;;;;;;;;-11.16;65.43;97331.66;6310794;28;19920;-62
2022/01/27 15:47:50;;;;;;;;;;;;;;;-11.43;64.70;97332.63;6311067;28;19930;-63
2022/01/27 15:50:51;;;;;;;;;;;;;;;-11.38;65.48;97342.91;6310703;28;19924;-62
2022/01/27 15:53:53;;;;;;;;;;;;;;;-11.47;65.39;97345.19;6308388;28;19928;-62
2022/01/27 15:56:56;;;;;;;;;;;;;;;-11.58;65.12;97343.19;6313376;28;19935;-62
2022/01/27 15:59:57;;;;;;;;;;;;;;;-11.66;65.04;97338.72;6310278;28;19947;-62
2022/01/27 16:02:58;;;;;;;;;;;;;;;-11.53;65.84;97345.88;6313671;28;19929;-62
2022/01/27 16:06:02;;;;;;;;;;;;;;;-11.26;65.68;97344.91;6311578;28;20317;-62
2022/01/27 16:09:04;;;;;;;;;;;;;;;-11.37;66.03;97345.50;6312259;28;20409;-61
2022/01/27 16:12:08;;;;;;;;;;;;;;;-11.52;65.91;97342.50;6309830;28;20065;-62
2022/01/27 16:15:10;;;;;;;;;;;;;;;-11.42;66.20;97338.56;6313210;28;19924;-63
2022/01/27 16:18:11;;;;;;;;;;;;;;;-11.37;66.29;97345.50;6312210;28;19920;-62
2022/01/27 16:21:14;;;;;;;;;;;;;;;-11.34;66.24;97343.03;6308243;28;20268;-61
2022/01/27 16:24:18;;;;;;;;;;;;;;;-11.30;66.43;97339.75;6310013;28;22244;-62
2022/01/27 16:27:20;;;;;;;;;;;;;;;-11.09;66.52;97334.41;6313383;28;19931;-61
2022/01/27 16:30:23;;;;;;;;;;;;;;;-11.19;66.74;97340.06;6303170;28;19927;-63
2022/01/27 16:33:25;;;;;;;;;;;;;;;-11.29;66.82;97343.19;6312216;28;19924;-62
2022/01/27 16:36:28;;;;;;;;;;;;;;;-11.22;66.63;97336.59;6311133;28;19931;-62
2022/01/27 16:39:31;;;;;;;;;;;;;;;-11.40;67.01;97337.81;6315419;28;19932;-63
2022/01/27 16:42:35;;;;;;;;;;;;;;;-11.48;67.46;97340.94;6314466;28;19939;-62
2022/01/27 16:45:39;;;;;;;;;;;;;;;-11.65;67.59;97340.47;6315499;28;19924;-63
2022/01/27 16:48:41;;;;;;;;;;;;;;;-11.72;67.34;97330.94;6327771;28;19924;-62
2022/01/27 16:51:42;;;;;;;;;;;;;;;-11.91;67.78;97335.50;6322219;28;19928;-63
2022/01/27 16:54:45;;;;;;;;;;;;;;;-12.11;67.96;97328.97;6328073;28;20020;-61